createdAt,value
2018-03-29T00:00:32.857Z,99.90
2018-03-29T00:03:01.370Z,99.90
2018-03-29T00:05:29.169Z,99.90
2018-03-29T00:07:56.918Z,99.90
2018-03-29T00:10:24.658Z,99.90
2018-03-29T00:12:52.464Z,99.90
2018-03-29T00:15:20.217Z,99.90
2018-03-29T00:17:47.976Z,99.90
2018-03-29T00:20:15.819Z,99.90
2018-03-29T00:22:43.567Z,99.90
2018-03-29T00:25:11.314Z,99.90
2018-03-29T00:27:39.121Z,99.90
2018-03-29T00:30:06.870Z,99.90
2018-03-29T00:32:34.615Z,99.90
2018-03-29T00:35:02.425Z,99.90
2018-03-29T00:37:30.941Z,99.90
2018-03-29T00:39:58.689Z,99.90
2018-03-29T00:42:26.499Z,99.90
2018-03-29T00:44:54.252Z,99.90
2018-03-29T00:47:21.999Z,99.90
2018-03-29T00:49:49.804Z,99.90
2018-03-29T00:52:17.567Z,99.90
2018-03-29T00:54:45.318Z,99.90
2018-03-29T00:57:13.130Z,99.90
2018-03-29T00:59:40.880Z,99.90
2018-03-29T01:02:09.393Z,99.90
2018-03-29T01:04:37.212Z,99.90
2018-03-29T01:07:05.725Z,99.90
2018-03-29T01:09:33.474Z,99.90
2018-03-29T01:12:01.270Z,99.90
2018-03-29T01:14:29.024Z,99.90
2018-03-29T01:16:56.772Z,99.90
2018-03-29T01:19:24.597Z,99.90
2018-03-29T01:21:53.125Z,99.90
2018-03-29T01:24:20.873Z,99.90
2018-03-29T01:26:48.677Z,99.90
2018-03-29T01:29:16.431Z,99.90
2018-03-29T01:31:44.191Z,99.90
2018-03-29T01:34:11.998Z,99.90
2018-03-29T01:36:40.514Z,99.90
2018-03-29T01:39:08.257Z,99.90
2018-03-29T01:41:36.057Z,99.90
2018-03-29T01:44:03.819Z,99.90
2018-03-29T01:46:31.566Z,99.90
2018-03-29T01:48:59.409Z,99.90
2018-03-29T01:51:27.186Z,99.90
2018-03-29T01:53:54.937Z,99.90
2018-03-29T01:56:22.743Z,99.90
2018-03-29T01:58:50.495Z,99.90
2018-03-29T02:01:18.231Z,99.90
2018-03-29T02:03:46.040Z,99.90
2018-03-29T02:06:13.802Z,99.90
2018-03-29T02:08:41.551Z,99.90
2018-03-29T02:11:09.353Z,99.90
2018-03-29T02:13:37.098Z,99.90
2018-03-29T02:16:05.628Z,99.90
2018-03-29T02:18:33.436Z,99.90
2018-03-29T02:21:01.185Z,99.90
2018-03-29T02:23:28.948Z,99.90
2018-03-29T02:25:56.750Z,99.90
2018-03-29T02:28:24.492Z,99.90
2018-03-29T02:30:53.033Z,99.90
2018-03-29T02:33:20.854Z,99.90
2018-03-29T02:35:48.619Z,99.90
2018-03-29T02:38:16.375Z,99.90
2018-03-29T02:40:44.178Z,99.90
2018-03-29T02:43:11.930Z,99.90
2018-03-29T02:45:39.686Z,99.90
2018-03-29T02:48:07.491Z,99.90
2018-03-29T02:50:35.250Z,99.90
2018-03-29T02:53:03.008Z,99.90
2018-03-29T02:55:30.815Z,99.90
2018-03-29T02:57:58.580Z,99.90
2018-03-29T03:00:26.341Z,99.90
2018-03-29T03:02:54.152Z,99.90
2018-03-29T03:05:21.904Z,99.90
2018-03-29T03:07:49.652Z,99.90
2018-03-29T03:10:17.459Z,99.90
2018-03-29T03:12:45.969Z,99.90
2018-03-29T03:15:13.719Z,99.90
2018-03-29T03:17:41.517Z,99.90
2018-03-29T03:20:09.259Z,99.90
2018-03-29T03:22:37.000Z,99.90
2018-03-29T03:25:05.580Z,99.90
2018-03-29T03:27:34.098Z,99.90
2018-03-29T03:30:01.841Z,99.90
2018-03-29T03:32:29.642Z,99.90
2018-03-29T03:34:57.394Z,99.90
2018-03-29T03:37:25.140Z,99.90
2018-03-29T03:39:52.938Z,99.90
2018-03-29T03:42:20.681Z,99.90
2018-03-29T03:44:48.432Z,99.90
2018-03-29T03:47:16.225Z,99.90
2018-03-29T03:49:43.961Z,99.90
2018-03-29T03:52:11.709Z,99.90
2018-03-29T03:54:39.508Z,99.90
2018-03-29T03:57:07.256Z,99.90
2018-03-29T03:59:35.019Z,99.90
2018-03-29T04:02:02.835Z,99.90
2018-03-29T04:04:30.577Z,99.90
2018-03-29T04:06:59.124Z,99.90
2018-03-29T04:09:26.930Z,99.90
2018-03-29T04:11:55.514Z,99.90
2018-03-29T04:14:23.264Z,99.90
2018-03-29T04:16:51.825Z,99.90
2018-03-29T04:19:19.576Z,99.90
2018-03-29T04:21:47.323Z,99.90
2018-03-29T04:24:15.122Z,99.90
2018-03-29T04:26:48.628Z,99.90
2018-03-29T04:29:19.207Z,99.90
2018-03-29T04:31:46.959Z,99.90
2018-03-29T04:34:15.991Z,99.90
2018-03-29T04:36:43.796Z,99.90
2018-03-29T04:39:11.537Z,99.90
2018-03-29T04:41:40.051Z,99.90
2018-03-29T04:44:07.850Z,99.90
2018-03-29T04:46:35.597Z,99.90
2018-03-29T04:49:03.338Z,99.90
2018-03-29T04:51:31.134Z,99.90
2018-03-29T04:53:58.883Z,99.90
2018-03-29T04:56:27.416Z,99.90
2018-03-29T04:58:55.234Z,99.90
2018-03-29T05:01:23.024Z,99.90
2018-03-29T05:03:50.810Z,99.90
2018-03-29T05:06:18.618Z,99.90
2018-03-29T05:08:46.366Z,99.90
2018-03-29T05:11:14.119Z,99.90
2018-03-29T05:13:41.921Z,99.90
2018-03-29T05:16:10.430Z,99.90
2018-03-29T05:18:38.205Z,99.90
2018-03-29T05:21:06.010Z,99.90
2018-03-29T05:23:33.759Z,99.90
2018-03-29T05:26:07.544Z,99.90
2018-03-29T05:28:35.290Z,99.90
2018-03-29T05:31:03.038Z,99.90
2018-03-29T05:33:30.837Z,99.90
2018-03-29T05:35:58.581Z,99.90
2018-03-29T05:38:26.326Z,99.90
2018-03-29T05:40:54.173Z,99.90
2018-03-29T05:43:22.689Z,99.90
2018-03-29T05:45:50.472Z,99.90
2018-03-29T05:48:18.299Z,99.90
2018-03-29T05:50:46.055Z,99.90
2018-03-29T05:53:13.815Z,99.90
2018-03-29T05:55:41.666Z,99.90
2018-03-29T05:58:10.173Z,99.90
2018-03-29T06:00:37.925Z,99.90
2018-03-29T06:03:05.806Z,99.90
2018-03-29T06:05:33.573Z,99.90
2018-03-29T06:08:01.321Z,99.90
2018-03-29T06:10:29.122Z,99.90
2018-03-29T06:12:57.639Z,99.90
2018-03-29T06:15:26.154Z,99.90
2018-03-29T06:17:59.689Z,99.90
2018-03-29T06:20:27.440Z,99.90
2018-03-29T06:22:55.185Z,99.90
2018-03-29T06:25:22.996Z,99.90
2018-03-29T06:27:51.517Z,99.90
2018-03-29T06:30:19.264Z,99.90
2018-03-29T06:32:47.082Z,99.90
2018-03-29T06:35:14.825Z,99.90
2018-03-29T06:37:43.348Z,99.90
2018-03-29T06:40:11.919Z,99.90
2018-03-29T06:42:40.422Z,99.90
2018-03-29T06:45:08.163Z,99.90
2018-03-29T06:47:36.730Z,99.90
2018-03-29T06:50:04.485Z,99.90
2018-03-29T06:52:32.254Z,99.90
2018-03-29T06:55:00.059Z,99.90
2018-03-29T06:57:27.818Z,99.90
2018-03-29T06:59:55.556Z,99.90
2018-03-29T07:02:24.136Z,99.90
2018-03-29T07:04:52.671Z,99.90
2018-03-29T07:07:20.425Z,99.90
2018-03-29T07:09:48.232Z,99.90
2018-03-29T07:12:15.972Z,99.90
2018-03-29T07:14:43.724Z,99.90
2018-03-29T07:17:11.530Z,99.90
2018-03-29T07:19:40.034Z,99.90
2018-03-29T07:22:07.781Z,99.90
2018-03-29T07:24:35.587Z,99.90
2018-03-29T07:27:03.342Z,99.90
2018-03-29T07:29:31.097Z,99.90
2018-03-29T07:31:58.899Z,90.50
2018-03-29T07:34:26.653Z,65.30
2018-03-29T07:36:54.415Z,73.20
2018-03-29T07:39:22.216Z,86.10
2018-03-29T07:41:49.980Z,88.00
2018-03-29T07:44:17.744Z,88.60
2018-03-29T07:46:45.593Z,97.90
2018-03-29T07:49:14.105Z,99.80
2018-03-29T07:51:41.853Z,99.90
2018-03-29T07:54:09.691Z,90.00
2018-03-29T07:56:38.227Z,77.80
2018-03-29T07:59:05.976Z,77.60
2018-03-29T08:01:33.779Z,84.80
2018-03-29T08:04:01.534Z,84.10
2018-03-29T08:06:29.293Z,88.80
2018-03-29T08:08:57.105Z,97.20
2018-03-29T08:11:24.858Z,99.90
2018-03-29T08:13:52.623Z,99.90
2018-03-29T08:16:20.494Z,99.90
2018-03-29T08:18:48.295Z,99.90
2018-03-29T08:21:16.054Z,99.90
2018-03-29T08:23:43.860Z,99.90
2018-03-29T08:26:12.378Z,99.90
2018-03-29T08:28:40.119Z,99.90
2018-03-29T08:31:07.925Z,99.90
2018-03-29T08:33:35.674Z,99.90
2018-03-29T08:36:03.416Z,99.90
2018-03-29T08:38:31.216Z,99.90
2018-03-29T08:40:58.958Z,99.90
2018-03-29T08:43:26.702Z,99.90
2018-03-29T08:45:54.507Z,99.90
2018-03-29T08:48:22.253Z,99.90
2018-03-29T08:50:50.015Z,99.90
2018-03-29T08:53:17.841Z,99.90
2018-03-29T08:55:45.597Z,99.90
2018-03-29T08:58:13.356Z,97.60
2018-03-29T09:00:41.162Z,97.50
2018-03-29T09:03:08.988Z,98.60
2018-03-29T09:05:36.746Z,97.60
2018-03-29T09:08:04.582Z,95.50
2018-03-29T09:10:33.102Z,93.10
2018-03-29T09:13:00.855Z,93.10
2018-03-29T09:15:28.898Z,92.20
2018-03-29T09:17:57.426Z,93.10
2018-03-29T09:20:25.175Z,93.10
2018-03-29T09:22:52.989Z,90.90
2018-03-29T09:25:20.740Z,95.30
2018-03-29T09:27:48.500Z,93.20
2018-03-29T09:30:16.318Z,94.10
2018-03-29T09:32:44.066Z,91.90
2018-03-29T09:35:11.820Z,90.80
2018-03-29T09:37:40.384Z,95.40
2018-03-29T09:40:08.169Z,95.80
2018-03-29T09:42:35.939Z,90.10
2018-03-29T09:45:03.790Z,78.50
2018-03-29T09:47:32.310Z,87.20
2018-03-29T09:50:00.080Z,87.10
2018-03-29T09:52:27.901Z,74.20
2018-03-29T09:54:55.666Z,70.00
2018-03-29T09:57:23.422Z,63.30
2018-03-29T09:59:51.393Z,62.30
2018-03-29T10:02:19.226Z,62.50
2018-03-29T10:04:52.686Z,58.80
2018-03-29T10:07:24.328Z,59.00
2018-03-29T10:09:52.285Z,57.30
2018-03-29T10:12:20.082Z,52.60
2018-03-29T10:14:47.829Z,47.90
2018-03-29T10:17:15.641Z,49.00
2018-03-29T10:19:44.163Z,48.20
2018-03-29T10:22:14.410Z,48.00
2018-03-29T10:24:42.210Z,47.40
2018-03-29T10:27:10.726Z,43.80
2018-03-29T10:29:38.470Z,43.70
2018-03-29T10:32:06.285Z,42.60
2018-03-29T10:34:34.038Z,42.30
2018-03-29T10:37:01.811Z,42.50
2018-03-29T10:39:29.660Z,43.70
2018-03-29T10:41:57.419Z,40.70
2018-03-29T10:44:25.191Z,41.90
2018-03-29T10:46:53.014Z,44.70
2018-03-29T10:49:20.757Z,45.00
2018-03-29T10:51:48.513Z,43.40
2018-03-29T10:54:17.074Z,48.40
2018-03-29T10:56:44.817Z,48.40
2018-03-29T10:59:12.560Z,45.50
2018-03-29T11:01:40.455Z,44.70
2018-03-29T11:04:08.194Z,43.40
2018-03-29T11:06:35.932Z,47.00
2018-03-29T11:09:03.771Z,45.90
2018-03-29T11:11:31.517Z,46.90
2018-03-29T11:14:00.024Z,46.00
2018-03-29T11:16:27.827Z,46.20
2018-03-29T11:18:55.569Z,44.50
2018-03-29T11:21:23.319Z,43.40
2018-03-29T11:23:51.138Z,44.70
2018-03-29T11:26:18.988Z,43.50
2018-03-29T11:28:46.745Z,43.40
2018-03-29T11:31:14.548Z,42.40
2018-03-29T11:33:42.294Z,43.30
2018-03-29T11:36:10.032Z,43.40
2018-03-29T11:38:37.831Z,42.10
2018-03-29T11:41:06.342Z,42.90
2018-03-29T11:43:34.086Z,42.80
2018-03-29T11:46:01.890Z,45.00
2018-03-29T11:48:29.626Z,46.60
2018-03-29T11:50:57.375Z,42.80
2018-03-29T11:53:25.260Z,43.50
2018-03-29T11:55:53.005Z,42.60
2018-03-29T11:58:20.755Z,45.00
2018-03-29T12:00:48.554Z,43.70
2018-03-29T12:03:16.302Z,47.10
2018-03-29T12:05:44.032Z,44.20
2018-03-29T12:08:11.827Z,44.80
2018-03-29T12:10:39.565Z,44.00
2018-03-29T12:13:07.314Z,44.10
2018-03-29T12:15:35.868Z,43.80
2018-03-29T12:18:03.611Z,43.60
2018-03-29T12:20:31.310Z,43.20
2018-03-29T12:22:59.818Z,43.50
2018-03-29T12:25:27.525Z,43.70
2018-03-29T12:27:55.221Z,40.40
2018-03-29T12:30:23.747Z,40.50
2018-03-29T12:32:51.448Z,40.50
2018-03-29T12:35:19.889Z,43.40
2018-03-29T12:37:47.624Z,43.40
2018-03-29T12:40:15.300Z,44.60
2018-03-29T12:42:42.996Z,42.10
2018-03-29T12:45:10.733Z,37.40
2018-03-29T12:47:39.197Z,38.00
2018-03-29T12:50:06.885Z,38.60
2018-03-29T12:52:34.619Z,38.90
2018-03-29T12:55:14.146Z,39.60
2018-03-29T12:57:53.820Z,39.80
2018-03-29T13:00:21.521Z,39.60
2018-03-29T13:02:49.964Z,40.40
2018-03-29T13:05:17.706Z,40.00
2018-03-29T13:07:45.391Z,40.00
2018-03-29T13:10:13.075Z,38.30
2018-03-29T13:12:41.612Z,35.70
2018-03-29T13:15:09.286Z,35.60
2018-03-29T13:17:36.978Z,36.30
2018-03-29T13:20:05.468Z,36.80
2018-03-29T13:22:33.149Z,36.70
2018-03-29T13:25:00.831Z,36.70
2018-03-29T13:27:28.601Z,37.00
2018-03-29T13:29:56.305Z,41.80
2018-03-29T13:32:24.010Z,40.20
2018-03-29T13:34:51.748Z,37.80
2018-03-29T13:37:19.432Z,36.80
2018-03-29T13:39:47.113Z,35.90
2018-03-29T13:42:14.859Z,36.70
2018-03-29T13:44:42.609Z,38.40
2018-03-29T13:47:10.298Z,40.10
2018-03-29T13:49:38.045Z,38.60
2018-03-29T13:52:05.731Z,41.60
2018-03-29T13:54:34.199Z,38.10
2018-03-29T13:57:01.924Z,38.20
2018-03-29T13:59:29.600Z,38.40
2018-03-29T14:01:57.280Z,39.50
2018-03-29T14:04:25.017Z,36.10
2018-03-29T14:06:52.711Z,36.40
2018-03-29T14:09:21.170Z,35.90
2018-03-29T14:11:48.912Z,35.80
2018-03-29T14:14:17.370Z,35.90
2018-03-29T14:16:45.048Z,35.80
2018-03-29T14:19:12.786Z,35.90
2018-03-29T14:21:40.465Z,35.90
2018-03-29T14:24:08.139Z,36.80
2018-03-29T14:26:35.896Z,36.10
2018-03-29T14:29:03.600Z,35.00
2018-03-29T14:31:32.057Z,35.60
2018-03-29T14:33:59.797Z,35.70
2018-03-29T14:36:27.492Z,34.20
2018-03-29T14:38:55.200Z,34.60
2018-03-29T14:41:22.945Z,35.20
2018-03-29T14:43:50.622Z,35.70
2018-03-29T14:46:19.104Z,35.70
2018-03-29T14:48:46.876Z,35.70
2018-03-29T14:51:15.324Z,38.20
2018-03-29T14:53:43.016Z,38.20
2018-03-29T14:56:10.751Z,34.20
2018-03-29T14:58:38.474Z,33.60
2018-03-29T15:01:06.992Z,35.40
2018-03-29T15:03:34.725Z,35.40
2018-03-29T15:06:03.171Z,36.10
2018-03-29T15:08:30.843Z,36.10
2018-03-29T15:10:58.595Z,36.60
2018-03-29T15:13:26.293Z,36.40
2018-03-29T15:15:53.973Z,35.60
2018-03-29T15:18:21.712Z,37.30
2018-03-29T15:20:49.391Z,38.40
2018-03-29T15:23:17.078Z,36.40
2018-03-29T15:25:44.817Z,34.40
2018-03-29T15:28:12.500Z,35.90
2018-03-29T15:30:40.192Z,36.00
2018-03-29T15:33:07.924Z,35.30
2018-03-29T15:35:35.596Z,36.90
2018-03-29T15:38:03.288Z,36.00
2018-03-29T15:40:31.809Z,36.90
2018-03-29T15:42:59.488Z,37.00
2018-03-29T15:45:27.168Z,36.90
2018-03-29T15:47:54.912Z,35.60
2018-03-29T15:50:22.598Z,37.20
2018-03-29T15:52:51.086Z,40.30
2018-03-29T15:55:19.588Z,38.00
2018-03-29T15:57:47.284Z,38.00
2018-03-29T16:00:14.961Z,35.90
2018-03-29T16:02:42.851Z,36.60
2018-03-29T16:05:10.565Z,37.30
2018-03-29T16:07:38.481Z,38.00
2018-03-29T16:10:07.000Z,37.00
2018-03-29T16:12:34.715Z,37.00
2018-03-29T16:15:02.433Z,38.20
2018-03-29T16:17:30.186Z,37.90
2018-03-29T16:19:57.882Z,39.00
2018-03-29T16:22:25.589Z,39.00
2018-03-29T16:24:53.322Z,39.80
2018-03-29T16:27:21.771Z,39.80
2018-03-29T16:29:49.461Z,39.70
2018-03-29T16:32:17.964Z,39.10
2018-03-29T16:34:45.650Z,39.00
2018-03-29T16:37:13.333Z,39.70
2018-03-29T16:39:41.055Z,41.70
2018-03-29T16:42:08.751Z,41.60
2018-03-29T16:44:36.430Z,42.20
2018-03-29T16:47:04.938Z,43.40
2018-03-29T16:49:33.077Z,43.40
2018-03-29T16:52:01.525Z,42.50
2018-03-29T16:54:29.265Z,42.50
2018-03-29T16:56:56.951Z,42.20
2018-03-29T16:59:24.741Z,42.30
2018-03-29T17:01:54.316Z,44.10
2018-03-29T17:04:24.616Z,44.00
2018-03-29T17:06:52.307Z,43.60
2018-03-29T17:09:20.053Z,43.90
2018-03-29T17:11:48.540Z,46.00
2018-03-29T17:14:16.248Z,46.10
2018-03-29T17:16:44.043Z,45.70
2018-03-29T17:19:11.737Z,44.70
2018-03-29T17:21:39.431Z,46.90
2018-03-29T17:24:07.365Z,47.40
2018-03-29T17:26:35.102Z,46.20
2018-03-29T17:29:02.893Z,46.80
2018-03-29T17:31:30.637Z,47.40
2018-03-29T17:33:58.351Z,47.80
2018-03-29T17:36:26.101Z,49.40
2018-03-29T17:38:54.147Z,49.90
2018-03-29T17:41:22.620Z,51.20
2018-03-29T17:43:50.300Z,51.20
2018-03-29T17:46:18.037Z,50.90
2018-03-29T17:48:46.517Z,51.10
2018-03-29T17:51:14.209Z,51.10
2018-03-29T17:53:41.946Z,51.50
2018-03-29T17:56:10.403Z,52.80
2018-03-29T17:58:38.289Z,52.80
2018-03-29T18:01:06.819Z,54.20
2018-03-29T18:03:34.496Z,54.10
2018-03-29T18:06:02.233Z,55.90
2018-03-29T18:08:29.982Z,56.60
2018-03-29T18:10:57.687Z,57.30
2018-03-29T18:13:25.370Z,58.00
2018-03-29T18:15:53.108Z,60.20
2018-03-29T18:18:20.798Z,59.70
2018-03-29T18:20:49.320Z,61.40
2018-03-29T18:23:17.062Z,61.40
2018-03-29T18:25:44.793Z,62.00
2018-03-29T18:28:12.488Z,62.10
2018-03-29T18:30:40.225Z,62.60
2018-03-29T18:33:08.722Z,62.80
2018-03-29T18:35:36.446Z,62.80
2018-03-29T18:38:04.307Z,62.40
2018-03-29T18:40:32.045Z,62.60
2018-03-29T18:42:59.747Z,62.90
2018-03-29T18:45:27.592Z,62.70
2018-03-29T18:47:56.057Z,64.50
2018-03-29T18:50:23.756Z,64.00
2018-03-29T18:52:52.262Z,60.90
2018-03-29T18:55:19.946Z,60.90
2018-03-29T18:57:47.673Z,60.40
2018-03-29T19:00:15.430Z,61.20
2018-03-29T19:02:43.121Z,61.70
2018-03-29T19:05:10.834Z,62.20
2018-03-29T19:07:39.403Z,63.50
2018-03-29T19:10:07.858Z,62.90
2018-03-29T19:12:35.553Z,62.90
2018-03-29T19:15:04.076Z,63.30
2018-03-29T19:17:31.777Z,63.40
2018-03-29T19:19:59.523Z,63.20
2018-03-29T19:22:27.262Z,63.50
2018-03-29T19:24:54.955Z,65.00
2018-03-29T19:27:22.641Z,64.60
2018-03-29T19:29:51.152Z,63.20
2018-03-29T19:32:18.848Z,63.20
2018-03-29T19:34:46.590Z,62.70
2018-03-29T19:37:14.397Z,68.70
2018-03-29T19:39:44.141Z,67.80
2018-03-29T19:42:11.902Z,67.80
2018-03-29T19:44:39.708Z,68.70
2018-03-29T19:47:08.214Z,66.80
2018-03-29T19:49:35.981Z,66.80
2018-03-29T19:52:03.853Z,66.60
2018-03-29T19:54:31.614Z,65.70
2018-03-29T19:56:59.362Z,65.40
2018-03-29T19:59:27.226Z,66.10
2018-03-29T20:01:54.997Z,66.40
2018-03-29T20:04:23.824Z,67.00
2018-03-29T20:06:51.733Z,67.30
2018-03-29T20:09:20.247Z,68.60
2018-03-29T20:11:48.036Z,68.60
2018-03-29T20:14:15.835Z,68.20
2018-03-29T20:16:44.390Z,69.50
2018-03-29T20:19:12.955Z,69.30
2018-03-29T20:21:40.812Z,69.30
2018-03-29T20:24:09.372Z,73.40
2018-03-29T20:26:37.119Z,73.40
2018-03-29T20:29:04.969Z,70.10
2018-03-29T20:31:32.753Z,70.70
2018-03-29T20:34:00.507Z,70.10
2018-03-29T20:36:28.310Z,71.80
2018-03-29T20:38:56.070Z,72.00
2018-03-29T20:41:23.817Z,71.80
2018-03-29T20:43:51.637Z,70.90
2018-03-29T20:46:20.150Z,73.70
2018-03-29T20:48:47.892Z,73.70
2018-03-29T20:51:15.697Z,73.00
2018-03-29T20:53:43.451Z,71.70
2018-03-29T20:56:11.474Z,71.20
2018-03-29T20:58:40.133Z,71.70
2018-03-29T21:03:40.828Z,71.70
2018-03-29T21:06:08.606Z,70.20
2018-03-29T21:08:36.356Z,69.90
2018-03-29T21:11:04.467Z,70.20
2018-03-29T21:13:32.219Z,70.20
2018-03-29T21:15:59.984Z,70.60
2018-03-29T21:18:27.796Z,71.10
2018-03-29T21:20:56.163Z,72.50
2018-03-29T21:23:24.101Z,73.60
2018-03-29T21:25:53.683Z,75.90
2018-03-29T21:28:21.450Z,75.90
2018-03-29T21:30:49.231Z,77.30
2018-03-29T21:33:17.802Z,82.30
2018-03-29T21:35:45.569Z,81.80
2018-03-29T21:38:13.330Z,83.50
2018-03-29T21:40:41.124Z,86.50
2018-03-29T21:43:08.986Z,88.30
2018-03-29T21:45:37.489Z,90.60
2018-03-29T21:48:05.319Z,90.70
2018-03-29T21:50:33.889Z,93.90
2018-03-29T21:53:02.394Z,95.30
2018-03-29T21:55:30.213Z,95.30
2018-03-29T21:57:57.985Z,96.60
2018-03-29T22:00:26.526Z,99.30
2018-03-29T22:02:54.325Z,99.20
2018-03-29T22:05:22.074Z,99.70
2018-03-29T22:07:49.829Z,99.90
2018-03-29T22:10:17.673Z,99.90
2018-03-29T22:12:45.437Z,99.90
2018-03-29T22:15:13.189Z,99.90
2018-03-29T22:17:40.990Z,99.90
2018-03-29T22:20:08.869Z,99.90
2018-03-29T22:22:36.613Z,99.90
2018-03-29T22:25:04.445Z,99.90
2018-03-29T22:27:32.222Z,99.90
2018-03-29T22:29:59.981Z,99.90
2018-03-29T22:32:27.798Z,99.90
2018-03-29T22:34:56.359Z,99.90
2018-03-29T22:37:24.910Z,99.90
2018-03-29T22:39:52.711Z,99.90
2018-03-29T22:42:20.479Z,99.90
2018-03-29T22:44:48.997Z,99.90
2018-03-29T22:47:16.802Z,99.90
2018-03-29T22:49:44.543Z,99.90
2018-03-29T22:52:12.300Z,99.90
2018-03-29T22:54:40.108Z,99.90
2018-03-29T22:57:07.866Z,99.90
2018-03-29T22:59:36.397Z,99.90
2018-03-29T23:02:04.205Z,99.90
2018-03-29T23:04:32.722Z,99.90
2018-03-29T23:07:00.473Z,99.90
2018-03-29T23:09:28.278Z,99.90
2018-03-29T23:11:56.028Z,99.90
2018-03-29T23:14:23.779Z,99.90
2018-03-29T23:16:51.570Z,99.90
2018-03-29T23:19:19.318Z,99.90
2018-03-29T23:21:47.061Z,99.90
2018-03-29T23:24:14.877Z,99.90
2018-03-29T23:26:43.394Z,99.90
2018-03-29T23:29:11.170Z,99.90
2018-03-29T23:31:38.982Z,99.90
2018-03-29T23:34:07.508Z,99.90
2018-03-29T23:36:36.124Z,99.90
2018-03-29T23:39:03.944Z,99.90
2018-03-29T23:41:31.690Z,99.90
2018-03-29T23:43:59.445Z,99.90
2018-03-29T23:46:27.245Z,99.90
2018-03-29T23:48:54.998Z,99.90
2018-03-29T23:51:22.748Z,99.90
2018-03-29T23:53:50.548Z,99.90
2018-03-29T23:56:18.307Z,99.90
2018-03-29T23:58:46.052Z,99.90
